Terminal Aerodrome Forecast
Issued by NWS

Home | Current Version | Previous Version | Graphics & Text | Print | Product List | Glossary On
Versions: 1 2 3 4 5 6 7 8 9 10 11 12 13 14 15 16 17 18 19 20 21 22
000
FTUS43 KGRB 191135
TAFAUW
TAF
KAUW 191135Z 1912/2012 09005KT P6SM BKN040 BKN070
     FM191500 11006KT P6SM FEW050 SCT070
     FM192000 14008KT P6SM SCT100
     FM200600 13007KT P6SM SCT025 BKN090 WS020/21040KT PROB30
      2008/2012 5SM -SHRA BR BKN025=

USA.gov is the U.S. government's official web portal to all federal, state and local government web resources and services.